Time;durP1;ratioP1;P1;durP2;ratioP2;P2;SDS_P1;SDS_P2;PMS_P1;PMS_P2;Temp;Humidity;BMP_temperature;BMP_pressure;BME280_temperature;BME280_humidity;BME280_pressure;Samples;Min_cycle;Max_cycle;Signal;HPM_P1;HPM_P2
2023/03/07 00:01:21;;;;;;;18.97;10.47;;;2.90;99.90;;;;;;5009756;28;20541;-74
2023/03/07 00:03:46;;;;;;;22.17;10.13;;;2.90;99.90;;;;;;5010227;28;20447;-74
2023/03/07 00:06:12;;;;;;;21.67;9.43;;;2.90;99.90;;;;;;5007680;28;20439;-74
2023/03/07 00:08:37;;;;;;;14.80;9.70;;;2.90;99.90;;;;;;5014138;28;20236;-74
2023/03/07 00:11:05;;;;;;;16.60;9.47;;;3.00;99.90;;;;;;5007240;28;20711;-74
2023/03/07 00:13:32;;;;;;;20.00;10.00;;;3.00;99.90;;;;;;5014039;28;20207;-73
2023/03/07 00:16:06;;;;;;;15.37;8.80;;;2.90;99.90;;;;;;5009955;28;20449;-74
2023/03/07 00:18:33;;;;;;;15.83;9.43;;;2.90;99.90;;;;;;5013572;28;20929;-74
2023/03/07 00:21:01;;;;;;;18.30;9.33;;;2.90;99.90;;;;;;5012834;28;20546;-73
2023/03/07 00:23:27;;;;;;;14.83;10.97;;;2.90;99.90;;;;;;5013430;28;20551;-73
2023/03/07 00:26:01;;;;;;;18.90;9.43;;;2.90;99.90;;;;;;5009858;28;20548;-74
2023/03/07 00:28:27;;;;;;;16.90;9.70;;;2.90;99.90;;;;;;5000485;28;20227;-73
2023/03/07 00:30:53;;;;;;;13.10;8.63;;;2.80;99.90;;;;;;5012857;28;20521;-75
2023/03/07 00:33:18;;;;;;;19.43;9.40;;;2.90;99.90;;;;;;5012728;28;20931;-73
2023/03/07 00:35:44;;;;;;;15.57;8.50;;;2.90;99.90;;;;;;5010650;28;20761;-73
2023/03/07 00:38:09;;;;;;;20.03;9.73;;;3.00;99.90;;;;;;5011600;28;20193;-74
2023/03/07 00:40:35;;;;;;;14.83;8.83;;;2.90;99.90;;;;;;4997225;28;20196;-75
2023/03/07 00:43:00;;;;;;;17.10;9.70;;;3.00;99.90;;;;;;5012819;28;20432;-74
2023/03/07 00:45:26;;;;;;;14.03;9.13;;;3.00;99.90;;;;;;5012929;28;20201;-73
2023/03/07 00:47:51;;;;;;;16.73;9.73;;;3.10;99.90;;;;;;5011983;28;20695;-75
2023/03/07 00:50:17;;;;;;;13.97;8.73;;;3.10;99.90;;;;;;4996700;28;20196;-73
2023/03/07 00:52:43;;;;;;;12.47;8.87;;;3.10;99.90;;;;;;5012875;28;20720;-74
2023/03/07 00:55:08;;;;;;;12.70;8.13;;;3.10;99.90;;;;;;5006794;28;20662;-73
2023/03/07 00:57:34;;;;;;;16.60;9.93;;;3.10;99.90;;;;;;5007126;28;20200;-74
2023/03/07 00:59:59;;;;;;;12.47;7.90;;;3.10;99.90;;;;;;5009484;28;20852;-73
2023/03/07 01:02:25;;;;;;;15.80;8.83;;;3.10;99.90;;;;;;5012593;28;20220;-74
2023/03/07 01:04:50;;;;;;;15.63;8.60;;;3.20;99.90;;;;;;5012910;28;20559;-75
2023/03/07 01:07:16;;;;;;;18.33;8.77;;;3.20;99.90;;;;;;5009017;28;20239;-73
2023/03/07 01:09:41;;;;;;;16.33;9.13;;;3.10;99.90;;;;;;5007078;28;20597;-73
2023/03/07 01:12:07;;;;;;;14.50;9.40;;;3.20;99.90;;;;;;5006233;28;20215;-76
2023/03/07 01:14:33;;;;;;;12.57;8.30;;;3.10;99.90;;;;;;5012578;28;20197;-73
2023/03/07 01:16:58;;;;;;;15.30;8.17;;;3.10;99.90;;;;;;5011309;28;20184;-73
2023/03/07 01:19:24;;;;;;;11.33;7.37;;;3.10;99.90;;;;;;5003555;28;20212;-73
2023/03/07 01:21:49;;;;;;;15.57;9.43;;;3.10;99.90;;;;;;5012306;28;20215;-73
2023/03/07 01:24:15;;;;;;;16.77;7.87;;;3.10;99.90;;;;;;5011880;28;20190;-73
2023/03/07 01:26:41;;;;;;;16.40;8.53;;;3.10;99.90;;;;;;5009831;28;20192;-74
2023/03/07 01:29:07;;;;;;;14.73;8.23;;;3.10;99.90;;;;;;5009400;28;20480;-74
2023/03/07 01:31:33;;;;;;;13.67;8.13;;;3.10;99.90;;;;;;5003881;28;20663;-74
2023/03/07 01:34:00;;;;;;;12.73;8.37;;;3.10;99.90;;;;;;5011945;28;20467;-71
2023/03/07 01:36:29;;;;;;;13.03;8.07;;;3.10;99.90;;;;;;4996465;28;20441;-74
2023/03/07 01:38:57;;;;;;;16.10;8.33;;;3.10;99.90;;;;;;5002535;28;20957;-74
2023/03/07 01:41:23;;;;;;;12.97;8.33;;;3.10;99.90;;;;;;5003321;28;20558;-73
2023/03/07 01:43:49;;;;;;;16.90;8.90;;;3.10;99.90;;;;;;5009873;28;21023;-73
2023/03/07 01:46:18;;;;;;;14.43;8.20;;;3.10;99.90;;;;;;5011528;28;20447;-75
2023/03/07 01:48:49;;;;;;;13.43;8.53;;;3.10;99.90;;;;;;5008712;28;20474;-72
2023/03/07 01:51:16;;;;;;;15.43;7.87;;;3.10;99.90;;;;;;5011360;28;20430;-74
2023/03/07 01:53:42;;;;;;;14.30;9.57;;;3.10;99.90;;;;;;5007439;28;20445;-73
2023/03/07 01:56:09;;;;;;;11.47;7.57;;;3.10;99.90;;;;;;5009096;28;20497;-75
2023/03/07 01:58:37;;;;;;;15.57;7.73;;;3.10;99.90;;;;;;5010038;28;20563;-73
2023/03/07 03:31:40;;;;;;;10.67;7.20;;;3.10;99.90;;;;;;5528556;22;20571;-75
2023/03/07 03:34:05;;;;;;;11.67;8.20;;;3.10;99.90;;;;;;5019911;28;20902;-74
2023/03/07 03:36:31;;;;;;;13.70;8.60;;;3.20;99.90;;;;;;5018555;28;20555;-74
2023/03/07 03:38:58;;;;;;;18.40;8.83;;;3.20;99.90;;;;;;5016500;28;20238;-74
2023/03/07 03:41:24;;;;;;;18.10;8.47;;;3.20;99.90;;;;;;5012891;28;20313;-73
2023/03/07 03:43:50;;;;;;;12.00;8.00;;;3.30;99.90;;;;;;5014075;28;20471;-74
2023/03/07 03:46:18;;;;;;;15.97;8.40;;;3.30;99.90;;;;;;5013518;28;20862;-74
2023/03/07 03:48:44;;;;;;;14.93;8.80;;;3.30;99.90;;;;;;5014092;28;20466;-75
2023/03/07 03:51:13;;;;;;;17.57;8.23;;;3.30;99.90;;;;;;5004504;28;20457;-74
2023/03/07 03:53:39;;;;;;;14.83;8.00;;;3.40;99.90;;;;;;4998900;28;20437;-74
2023/03/07 03:56:11;;;;;;;12.47;8.30;;;3.30;99.90;;;;;;5013862;28;20430;-73
2023/03/07 03:58:37;;;;;;;15.83;8.83;;;3.30;99.90;;;;;;4998204;28;20425;-73
2023/03/07 04:01:08;;;;;;;16.57;9.20;;;3.40;99.90;;;;;;4994518;28;20550;-74
2023/03/07 04:03:39;;;;;;;12.13;8.50;;;3.40;99.90;;;;;;5012904;28;20432;-74
2023/03/07 04:06:10;;;;;;;16.50;8.73;;;3.30;99.90;;;;;;5013537;28;20443;-74
2023/03/07 04:08:37;;;;;;;17.70;10.53;;;3.30;99.90;;;;;;5013468;28;20524;-76
2023/03/07 04:11:06;;;;;;;14.63;8.40;;;3.30;99.90;;;;;;5010661;28;20822;-74
2023/03/07 04:13:33;;;;;;;14.80;9.40;;;3.30;99.90;;;;;;5013422;28;20440;-76
2023/03/07 04:15:59;;;;;;;13.90;8.90;;;3.30;99.90;;;;;;5013585;28;20497;-74
2023/03/07 04:18:25;;;;;;;17.83;9.70;;;3.30;99.90;;;;;;5011912;28;20439;-74
2023/03/07 04:20:51;;;;;;;14.53;9.40;;;3.30;99.90;;;;;;5010835;28;20214;-76
2023/03/07 04:23:18;;;;;;;12.80;8.53;;;3.30;99.90;;;;;;5013042;28;20189;-75
2023/03/07 04:25:57;;;;;;;13.40;8.27;;;3.30;99.90;;;;;;5013567;28;20488;-75
2023/03/07 04:28:41;;;;;;;19.97;9.97;;;3.30;99.90;;;;;;5012251;28;20462;-75
2023/03/07 04:31:07;;;;;;;15.03;9.17;;;3.40;99.90;;;;;;5008847;28;20832;-74
2023/03/07 04:33:33;;;;;;;14.17;9.00;;;3.30;99.90;;;;;;5013014;28;20446;-76
2023/03/07 04:35:58;;;;;;;13.33;8.83;;;3.30;99.90;;;;;;5012940;28;21036;-74
2023/03/07 04:38:24;;;;;;;15.40;9.27;;;3.40;99.90;;;;;;5012871;28;20244;-74
2023/03/07 04:40:49;;;;;;;16.03;9.67;;;3.40;99.90;;;;;;5003830;28;20558;-76
2023/03/07 04:43:15;;;;;;;15.70;8.93;;;3.50;99.90;;;;;;5012515;28;20196;-74
2023/03/07 04:45:40;;;;;;;14.93;9.53;;;3.50;99.90;;;;;;5013268;28;20198;-74
2023/03/07 04:48:06;;;;;;;15.70;9.93;;;3.50;99.90;;;;;;5012943;28;20270;-77
2023/03/07 04:50:32;;;;;;;16.50;9.50;;;3.40;99.90;;;;;;5005084;28;20194;-76
2023/03/07 04:52:57;;;;;;;21.40;10.73;;;3.40;99.90;;;;;;5010863;28;20204;-74
2023/03/07 04:55:23;;;;;;;11.43;8.03;;;3.40;99.90;;;;;;5011490;28;20200;-75
2023/03/07 04:57:50;;;;;;;15.17;9.33;;;3.40;99.90;;;;;;5013071;28;20181;-74
2023/03/07 05:00:17;;;;;;;16.87;9.80;;;3.40;99.90;;;;;;5005897;28;20282;-75
2023/03/07 05:02:43;;;;;;;13.63;9.03;;;3.30;99.90;;;;;;5012840;28;20437;-74
2023/03/07 05:05:09;;;;;;;20.10;10.37;;;3.30;99.90;;;;;;5012566;28;20426;-75
2023/03/07 05:07:34;;;;;;;19.73;9.80;;;3.30;99.90;;;;;;5012075;28;20445;-74
2023/03/07 05:10:00;;;;;;;17.17;8.37;;;3.30;99.90;;;;;;5006417;28;20218;-74
2023/03/07 05:12:25;;;;;;;15.70;9.90;;;3.40;99.90;;;;;;5011831;28;20225;-75
2023/03/07 05:14:51;;;;;;;14.83;9.03;;;3.30;99.90;;;;;;5012663;28;20561;-74
2023/03/07 05:17:18;;;;;;;16.40;9.93;;;3.40;99.90;;;;;;5011853;28;20679;-75
2023/03/07 05:19:43;;;;;;;18.30;10.47;;;3.40;99.90;;;;;;5006277;28;20263;-74
2023/03/07 05:22:09;;;;;;;16.00;9.10;;;3.40;99.90;;;;;;5006822;28;20538;-75
2023/03/07 05:24:34;;;;;;;13.10;8.80;;;3.40;99.90;;;;;;5012001;28;20384;-75
2023/03/07 05:27:00;;;;;;;21.00;9.40;;;3.30;99.90;;;;;;5012421;28;20189;-76
2023/03/07 05:29:26;;;;;;;15.60;9.63;;;3.40;99.90;;;;;;5005852;28;20483;-74
2023/03/07 05:31:51;;;;;;;14.20;9.60;;;3.40;99.90;;;;;;5012067;28;20220;-73
2023/03/07 05:34:17;;;;;;;16.10;9.20;;;3.40;99.90;;;;;;5011923;28;20216;-73
2023/03/07 05:36:43;;;;;;;14.80;8.60;;;3.40;99.90;;;;;;5004260;28;20191;-74
2023/03/07 05:39:09;;;;;;;19.00;10.00;;;3.40;99.90;;;;;;5006095;28;20304;-73
2023/03/07 05:41:34;;;;;;;16.73;8.80;;;3.40;99.90;;;;;;5010617;28;20704;-74
2023/03/07 05:44:00;;;;;;;13.13;8.70;;;3.40;99.90;;;;;;5011956;28;20435;-74
2023/03/07 05:46:25;;;;;;;15.70;9.50;;;3.50;99.90;;;;;;5011396;28;20203;-73
2023/03/07 05:48:51;;;;;;;15.33;9.40;;;3.50;99.90;;;;;;5009595;28;20345;-74
2023/03/07 05:51:17;;;;;;;18.90;9.53;;;3.50;99.90;;;;;;5007981;28;20712;-74
2023/03/07 05:53:42;;;;;;;15.87;9.20;;;3.50;99.90;;;;;;5011803;28;20636;-73
2023/03/07 05:56:08;;;;;;;15.10;9.83;;;3.50;99.90;;;;;;5011544;28;20183;-76
2023/03/07 05:58:33;;;;;;;15.93;9.90;;;3.50;99.90;;;;;;5011649;28;20201;-74
2023/03/07 06:01:02;;;;;;;14.63;9.50;;;3.40;99.90;;;;;;5005826;28;20295;-73
2023/03/07 06:03:27;;;;;;;15.63;8.80;;;3.50;99.90;;;;;;5010918;28;20292;-74
2023/03/07 06:05:53;;;;;;;17.10;9.83;;;3.50;99.90;;;;;;5011707;28;20510;-74
2023/03/07 06:08:18;;;;;;;16.20;8.93;;;3.50;99.90;;;;;;5009784;28;20209;-73
2023/03/07 06:10:48;;;;;;;16.10;8.83;;;3.50;99.90;;;;;;5006052;28;20271;-74
2023/03/07 06:13:17;;;;;;;15.23;8.30;;;3.40;99.90;;;;;;5011592;28;20631;-74
2023/03/07 06:15:43;;;;;;;18.37;9.60;;;3.40;99.90;;;;;;5011077;28;20514;-74
2023/03/07 06:18:09;;;;;;;13.57;7.80;;;3.40;99.90;;;;;;5011246;28;20435;-73
2023/03/07 06:20:35;;;;;;;15.50;8.77;;;3.50;99.90;;;;;;5004497;28;20704;-74
2023/03/07 06:23:01;;;;;;;17.23;10.33;;;3.50;99.90;;;;;;5007412;28;20476;-73
2023/03/07 06:25:26;;;;;;;21.50;10.30;;;3.50;99.90;;;;;;5009123;28;20554;-73
2023/03/07 06:27:58;;;;;;;15.53;8.70;;;3.50;99.90;;;;;;5011328;28;20223;-74
2023/03/07 06:30:24;;;;;;;18.27;8.90;;;3.50;99.90;;;;;;5005566;28;20279;-73
2023/03/07 06:32:49;;;;;;;10.63;7.23;;;3.50;99.90;;;;;;5011781;28;20518;-74
2023/03/07 06:35:15;;;;;;;12.60;7.30;;;3.50;99.90;;;;;;5011275;28;20229;-75
2023/03/07 06:37:40;;;;;;;12.07;7.03;;;3.50;99.90;;;;;;5010877;28;20303;-74
2023/03/07 06:40:08;;;;;;;13.53;8.00;;;3.60;99.90;;;;;;5006477;28;20242;-74
2023/03/07 06:42:34;;;;;;;18.43;9.00;;;3.60;99.90;;;;;;5006331;28;20255;-74
2023/03/07 06:44:59;;;;;;;15.37;8.13;;;3.60;99.90;;;;;;5011169;28;20459;-74
2023/03/07 06:47:25;;;;;;;14.40;8.10;;;3.60;99.90;;;;;;5010684;28;20475;-74
2023/03/07 06:49:51;;;;;;;19.80;9.30;;;3.70;99.90;;;;;;5006680;28;20187;-73
2023/03/07 06:52:16;;;;;;;16.60;8.70;;;3.70;99.90;;;;;;5009466;28;20211;-74
2023/03/07 06:54:42;;;;;;;16.40;8.57;;;3.70;99.90;;;;;;5009309;28;20192;-74
2023/03/07 06:57:07;;;;;;;14.80;8.93;;;3.70;99.90;;;;;;5006915;28;20265;-75
2023/03/07 06:59:33;;;;;;;14.03;8.57;;;3.70;99.90;;;;;;5005940;28;20185;-74
2023/03/07 07:02:01;;;;;;;14.47;8.70;;;3.80;99.90;;;;;;5009421;28;20235;-74
2023/03/07 07:04:27;;;;;;;12.10;8.13;;;3.90;99.90;;;;;;5010453;28;20192;-74
2023/03/07 07:06:53;;;;;;;20.20;8.60;;;4.00;99.90;;;;;;5007402;28;20437;-74
2023/03/07 07:09:18;;;;;;;13.50;8.40;;;4.00;99.90;;;;;;5006751;28;20256;-74
2023/03/07 07:11:44;;;;;;;14.10;8.73;;;4.10;99.90;;;;;;5010010;28;20295;-74
2023/03/07 07:14:09;;;;;;;14.70;8.13;;;4.10;99.90;;;;;;5010532;28;20187;-73
2023/03/07 07:16:35;;;;;;;17.40;9.50;;;4.20;99.90;;;;;;5008070;28;20193;-74
2023/03/07 07:19:01;;;;;;;14.83;8.70;;;4.30;99.90;;;;;;5013875;28;20664;-73
2023/03/07 07:21:26;;;;;;;12.27;8.40;;;4.30;99.90;;;;;;5011209;28;20210;-73
2023/03/07 07:23:52;;;;;;;12.30;7.67;;;4.40;99.90;;;;;;5002809;28;20658;-74
2023/03/07 07:26:17;;;;;;;11.83;7.90;;;4.50;99.90;;;;;;5014284;28;20194;-73
2023/03/07 07:28:43;;;;;;;15.53;7.97;;;4.60;99.90;;;;;;5014311;28;20291;-73
2023/03/07 07:31:08;;;;;;;14.00;8.73;;;4.70;99.90;;;;;;5008421;28;20242;-74
2023/03/07 07:33:34;;;;;;;15.90;8.90;;;4.80;99.90;;;;;;5013932;28;20236;-73
2023/03/07 07:36:00;;;;;;;16.97;9.17;;;4.90;99.90;;;;;;5014397;28;20559;-74
2023/03/07 07:38:25;;;;;;;10.27;7.90;;;4.90;99.90;;;;;;5013612;28;20455;-73
2023/03/07 07:40:51;;;;;;;16.43;7.50;;;5.00;99.90;;;;;;5011881;28;20217;-73
2023/03/07 07:43:16;;;;;;;15.03;8.40;;;5.00;99.90;;;;;;5010252;28;20240;-74
2023/03/07 07:45:42;;;;;;;12.70;8.50;;;5.10;99.90;;;;;;5012884;28;20277;-75
2023/03/07 07:48:08;;;;;;;17.30;8.90;;;5.10;99.90;;;;;;5013784;28;20286;-73
2023/03/07 07:50:34;;;;;;;12.07;8.07;;;5.10;99.90;;;;;;5013604;28;20673;-74
2023/03/07 07:52:59;;;;;;;10.50;8.17;;;5.20;99.90;;;;;;5012830;28;20512;-73
2023/03/07 07:55:25;;;;;;;13.60;8.03;;;5.30;99.90;;;;;;5010568;28;20189;-73
2023/03/07 07:57:51;;;;;;;13.90;8.83;;;5.40;99.90;;;;;;5013845;28;20194;-73
2023/03/07 08:00:20;;;;;;;14.63;8.60;;;5.50;99.90;;;;;;5013579;28;20205;-73
2023/03/07 08:02:48;;;;;;;12.40;8.43;;;5.60;99.90;;;;;;5004649;28;20443;-74
2023/03/07 08:05:14;;;;;;;13.50;7.97;;;5.50;99.90;;;;;;5002848;28;20948;-74
2023/03/07 08:07:39;;;;;;;10.20;6.63;;;5.60;99.90;;;;;;5013082;28;20467;-75
2023/03/07 08:10:05;;;;;;;14.10;7.93;;;5.70;99.90;;;;;;5013490;28;20192;-73
2023/03/07 08:12:31;;;;;;;12.90;8.00;;;5.80;99.90;;;;;;5004780;28;20291;-73
2023/03/07 08:14:56;;;;;;;16.07;8.83;;;6.00;99.90;;;;;;5010625;28;20524;-73
2023/03/07 08:17:22;;;;;;;11.60;7.57;;;6.00;99.90;;;;;;5013322;28;20652;-75
2023/03/07 08:19:47;;;;;;;11.33;6.70;;;6.10;99.90;;;;;;5012966;28;20195;-73
2023/03/07 08:22:13;;;;;;;13.57;8.13;;;6.30;99.90;;;;;;5001044;28;20678;-74
2023/03/07 08:24:38;;;;;;;10.47;7.13;;;6.20;99.90;;;;;;5006962;28;20221;-75
2023/03/07 08:27:04;;;;;;;11.57;8.27;;;6.30;99.90;;;;;;5010712;28;20250;-73
2023/03/07 08:29:29;;;;;;;8.40;6.47;;;6.30;99.90;;;;;;5012579;28;20217;-73
2023/03/07 08:31:55;;;;;;;12.23;7.93;;;6.40;99.90;;;;;;4999074;28;20270;-74
2023/03/07 08:34:20;;;;;;;19.20;9.47;;;6.40;99.90;;;;;;5006468;28;20203;-73
2023/03/07 08:36:46;;;;;;;11.37;8.00;;;6.50;99.90;;;;;;5012786;28;20187;-74
2023/03/07 08:39:12;;;;;;;11.07;6.90;;;6.50;99.90;;;;;;5012999;28;20192;-73
2023/03/07 08:41:38;;;;;;;16.23;9.23;;;6.60;99.90;;;;;;5008462;28;20225;-75
2023/03/07 08:44:03;;;;;;;14.10;8.47;;;6.60;99.90;;;;;;5007548;28;20188;-73
2023/03/07 08:46:29;;;;;;;16.37;8.40;;;6.80;99.90;;;;;;5012467;28;20674;-73
2023/03/07 08:48:54;;;;;;;12.17;7.30;;;6.90;99.90;;;;;;5012926;28;20207;-73
2023/03/07 08:51:20;;;;;;;12.40;8.03;;;6.90;99.90;;;;;;5009762;28;20208;-73
2023/03/07 08:53:46;;;;;;;13.17;8.20;;;6.80;99.90;;;;;;5006567;28;20195;-73
2023/03/07 08:56:14;;;;;;;12.47;7.93;;;6.80;99.90;;;;;;5012652;28;20189;-73
2023/03/07 08:58:39;;;;;;;12.60;6.97;;;7.10;99.90;;;;;;5012466;28;20504;-73
2023/03/07 09:01:06;;;;;;;11.03;7.20;;;7.10;99.90;;;;;;5012400;28;20452;-74
2023/03/07 09:03:32;;;;;;;11.03;6.90;;;7.10;99.90;;;;;;4993754;28;20294;-73
2023/03/07 09:05:58;;;;;;;13.20;7.90;;;7.00;99.90;;;;;;5012736;28;20428;-73
2023/03/07 09:08:24;;;;;;;12.20;7.60;;;7.10;99.90;;;;;;5012296;28;20504;-72
2023/03/07 09:10:49;;;;;;;10.47;7.53;;;7.10;99.90;;;;;;5012144;28;20211;-73
2023/03/07 09:13:16;;;;;;;12.67;6.97;;;7.30;99.90;;;;;;5007035;28;20240;-73
2023/03/07 09:15:42;;;;;;;12.10;7.23;;;7.30;99.90;;;;;;5012271;28;20190;-72
2023/03/07 09:18:07;;;;;;;10.57;7.30;;;7.30;99.90;;;;;;5012214;28;20527;-74
2023/03/07 09:20:33;;;;;;;10.20;6.93;;;7.60;99.90;;;;;;5011758;28;20642;-73
2023/03/07 09:22:59;;;;;;;9.40;6.40;;;8.00;99.90;;;;;;5004757;28;20190;-73
2023/03/07 09:25:24;;;;;;;9.33;6.10;;;8.00;99.90;;;;;;5012504;28;20692;-74
2023/03/07 09:27:52;;;;;;;10.07;6.77;;;7.80;99.90;;;;;;5012524;28;20600;-74
2023/03/07 09:30:18;;;;;;;9.00;5.90;;;7.50;99.90;;;;;;5012572;28;20190;-73
2023/03/07 09:32:43;;;;;;;8.77;6.27;;;7.30;99.90;;;;;;5012310;28;20909;-73
2023/03/07 09:35:10;;;;;;;12.77;6.33;;;7.50;99.90;;;;;;5012781;28;20190;-73
2023/03/07 09:37:36;;;;;;;11.20;7.57;;;7.40;99.90;;;;;;5012607;28;20197;-73
2023/03/07 09:40:06;;;;;;;12.23;6.90;;;7.30;99.90;;;;;;5011971;28;20577;-74
2023/03/07 09:42:48;;;;;;;9.23;6.80;;;7.20;99.90;;;;;;5012350;28;20455;-72
2023/03/07 09:45:41;;;;;;;14.60;8.33;;;7.00;99.90;;;;;;5001159;28;20877;-73
2023/03/07 09:48:36;;;;;;;10.33;5.67;;;6.90;99.90;;;;;;4999224;28;20467;-73
2023/03/07 09:51:31;;;;;;;9.10;5.90;;;6.70;99.90;;;;;;4997281;28;20439;-74
2023/03/07 09:54:05;;;;;;;7.10;5.17;;;6.50;99.90;;;;;;5011914;28;20500;-73
2023/03/07 09:56:42;;;;;;;8.80;5.63;;;6.50;99.90;;;;;;5010745;28;20431;-73
2023/03/07 09:59:23;;;;;;;8.47;5.67;;;6.50;99.90;;;;;;4994010;28;20431;-73
2023/03/07 10:01:51;;;;;;;9.80;6.60;;;6.40;99.90;;;;;;5008610;28;20477;-74
2023/03/07 10:04:25;;;;;;;7.77;5.30;;;6.30;99.90;;;;;;5000634;28;20518;-74
2023/03/07 10:06:57;;;;;;;9.00;6.00;;;6.20;99.90;;;;;;5010521;28;20435;-73
2023/03/07 10:09:23;;;;;;;7.30;5.13;;;6.20;99.90;;;;;;5011851;28;20982;-74
2023/03/07 10:12:17;;;;;;;8.60;6.37;;;6.10;99.90;;;;;;5012205;28;21000;-73
2023/03/07 10:15:13;;;;;;;12.40;6.53;;;6.10;99.90;;;;;;5012422;28;20422;-73
2023/03/07 10:17:56;;;;;;;9.70;5.57;;;6.10;99.90;;;;;;5011529;28;20459;-73
2023/03/07 10:20:50;;;;;;;6.53;4.90;;;6.10;99.90;;;;;;5011831;28;20438;-73
2023/03/07 10:23:24;;;;;;;9.07;6.20;;;6.00;99.90;;;;;;5000970;28;20404;-74
2023/03/07 10:25:55;;;;;;;6.90;5.30;;;6.00;99.90;;;;;;5012997;28;20425;-73
2023/03/07 10:28:27;;;;;;;8.10;5.70;;;6.00;99.90;;;;;;5011858;28;21010;-73
2023/03/07 10:30:59;;;;;;;7.93;5.37;;;6.00;99.90;;;;;;5011173;28;20958;-73
2023/03/07 10:33:26;;;;;;;7.00;5.50;;;5.90;99.90;;;;;;5011476;28;20901;-73
2023/03/07 10:36:04;;;;;;;11.07;5.57;;;5.90;99.90;;;;;;5011333;28;20453;-74
2023/03/07 10:38:50;;;;;;;10.57;5.87;;;5.80;99.90;;;;;;5011372;28;20693;-73
2023/03/07 10:41:20;;;;;;;9.60;6.20;;;5.60;99.90;;;;;;4999379;28;20814;-74
2023/03/07 10:43:48;;;;;;;11.90;5.73;;;5.70;99.90;;;;;;5010949;28;20442;-73
2023/03/07 10:46:20;;;;;;;9.47;5.17;;;5.60;99.90;;;;;;5011024;28;20446;-73
2023/03/07 10:48:55;;;;;;;11.33;5.87;;;5.60;99.90;;;;;;5011062;28;20476;-73
2023/03/07 10:51:49;;;;;;;8.43;6.20;;;5.60;99.90;;;;;;5010880;28;20806;-73
2023/03/07 10:54:19;;;;;;;10.43;5.63;;;5.60;99.90;;;;;;4998875;28;20784;-75
2023/03/07 10:57:08;;;;;;;10.90;6.33;;;5.60;99.90;;;;;;5010779;28;20428;-73
2023/03/07 10:59:36;;;;;;;16.77;9.57;;;5.60;99.90;;;;;;5011061;28;20404;-73
2023/03/07 11:02:21;;;;;;;13.37;8.17;;;5.50;99.90;;;;;;4995209;28;20439;-73
2023/03/07 11:04:46;;;;;;;13.73;6.33;;;5.60;99.90;;;;;;5010956;28;20420;-73
2023/03/07 11:07:33;;;;;;;9.67;7.17;;;5.60;99.90;;;;;;5010820;28;20931;-73
2023/03/07 11:10:00;;;;;;;9.00;6.03;;;5.60;99.90;;;;;;5010843;28;20266;-73
2023/03/07 11:12:28;;;;;;;12.90;6.50;;;5.60;99.90;;;;;;5011308;28;20441;-73
2023/03/07 11:15:11;;;;;;;13.20;7.10;;;5.60;99.90;;;;;;5011018;28;20944;-73
2023/03/07 11:17:48;;;;;;;16.20;8.70;;;5.60;99.90;;;;;;5011023;28;20416;-74
2023/03/07 11:20:21;;;;;;;13.13;7.17;;;5.60;99.90;;;;;;4997788;28;20503;-73
2023/03/07 11:22:47;;;;;;;11.00;7.33;;;5.60;99.90;;;;;;5010553;28;20422;-75
2023/03/07 11:25:20;;;;;;;11.47;7.10;;;5.60;99.90;;;;;;5010651;28;20420;-74
2023/03/07 11:27:56;;;;;;;15.47;7.70;;;5.70;99.90;;;;;;5010460;28;20250;-73
2023/03/07 11:30:45;;;;;;;24.20;12.10;;;5.70;99.90;;;;;;5010415;28;20422;-72
2023/03/07 11:33:20;;;;;;;16.63;9.97;;;5.70;99.90;;;;;;4996682;28;20440;-73
2023/03/07 11:36:16;;;;;;;9.33;6.97;;;5.60;99.90;;;;;;5010532;28;20416;-73
2023/03/07 11:38:59;;;;;;;9.40;6.13;;;5.60;99.90;;;;;;5010829;28;20456;-74
2023/03/07 11:41:50;;;;;;;7.50;5.33;;;5.60;99.90;;;;;;5010374;28;20495;-73
2023/03/07 11:44:39;;;;;;;7.90;5.87;;;5.70;99.90;;;;;;4997863;28;20423;-73
2023/03/07 11:47:29;;;;;;;11.07;6.23;;;5.70;99.90;;;;;;4994816;28;20771;-73
2023/03/07 11:50:23;;;;;;;10.47;6.80;;;5.70;99.90;;;;;;5010226;28;20426;-74
2023/03/07 11:53:23;;;;;;;12.17;6.23;;;5.70;99.90;;;;;;5010370;28;20426;-74
2023/03/07 11:56:03;;;;;;;10.83;6.10;;;5.80;99.90;;;;;;5010446;28;20771;-73
2023/03/07 11:58:45;;;;;;;11.00;6.00;;;5.80;99.90;;;;;;5010316;28;20896;-74
2023/03/07 12:01:28;;;;;;;8.87;5.90;;;5.70;99.90;;;;;;4995968;28;20433;-74
2023/03/07 12:04:18;;;;;;;7.67;4.37;;;5.70;99.90;;;;;;5013917;28;20803;-73
2023/03/07 12:07:05;;;;;;;7.33;5.60;;;5.70;99.90;;;;;;5012488;28;20483;-74
2023/03/07 12:09:36;;;;;;;9.37;6.10;;;5.70;99.90;;;;;;5013808;28;20476;-73
2023/03/07 12:12:13;;;;;;;6.50;5.20;;;5.70;99.90;;;;;;5013634;28;20446;-73
2023/03/07 12:14:51;;;;;;;9.30;5.53;;;5.70;99.90;;;;;;5013955;28;20430;-72
2023/03/07 12:17:26;;;;;;;7.20;4.90;;;5.80;99.90;;;;;;5001836;28;20420;-74
2023/03/07 12:20:04;;;;;;;7.40;5.27;;;5.90;99.90;;;;;;5015170;28;20417;-74
2023/03/07 12:22:51;;;;;;;8.03;5.60;;;5.90;99.90;;;;;;5012965;28;20815;-74
2023/03/07 12:25:24;;;;;;;10.23;5.67;;;5.90;99.90;;;;;;5000655;28;20414;-74
2023/03/07 12:28:03;;;;;;;10.03;4.70;;;6.00;99.90;;;;;;5013343;28;20471;-73
2023/03/07 12:30:49;;;;;;;11.53;5.50;;;6.20;99.90;;;;;;5013241;28;20501;-73
2023/03/07 12:33:42;;;;;;;7.37;4.63;;;6.30;99.90;;;;;;4999539;28;20420;-73
2023/03/07 12:36:21;;;;;;;8.97;5.33;;;6.60;99.90;;;;;;4990335;28;20435;-73
2023/03/07 12:39:05;;;;;;;11.10;5.40;;;6.80;99.90;;;;;;5011987;28;20520;-74
2023/03/07 12:41:45;;;;;;;9.37;6.23;;;7.00;99.90;;;;;;5011945;28;20818;-74
2023/03/07 12:44:47;;;;;;;7.93;5.40;;;7.10;99.90;;;;;;4998151;28;20641;-74
2023/03/07 12:47:45;;;;;;;9.20;6.07;;;7.30;99.90;;;;;;4998708;28;20422;-74
2023/03/07 12:50:15;;;;;;;10.73;5.30;;;7.40;99.90;;;;;;4997763;28;20798;-74
2023/03/07 12:52:54;;;;;;;11.00;6.10;;;7.60;99.90;;;;;;5013069;28;20846;-75
2023/03/07 12:55:35;;;;;;;9.07;5.60;;;7.70;99.90;;;;;;5000288;28;20418;-74
2023/03/07 12:58:05;;;;;;;9.80;5.10;;;7.80;99.90;;;;;;5012917;28;20423;-74
2023/03/07 13:00:38;;;;;;;13.13;6.33;;;8.00;99.90;;;;;;5012793;28;20416;-75
2023/03/07 13:03:05;;;;;;;12.03;6.10;;;7.70;99.90;;;;;;5012742;28;20527;-74
2023/03/07 13:05:34;;;;;;;8.77;5.70;;;7.60;99.90;;;;;;5013078;28;20424;-74
2023/03/07 13:08:00;;;;;;;11.30;6.23;;;7.60;99.90;;;;;;5012531;28;20471;-74
2023/03/07 13:10:26;;;;;;;7.23;5.03;;;7.60;99.90;;;;;;5012463;28;20448;-74
2023/03/07 13:12:52;;;;;;;9.53;5.43;;;7.60;99.90;;;;;;5011970;28;20433;-74
2023/03/07 13:15:18;;;;;;;7.23;5.80;;;7.60;99.90;;;;;;5012414;28;20553;-74
2023/03/07 13:17:43;;;;;;;11.70;5.40;;;7.50;99.90;;;;;;5012660;28;20420;-74
2023/03/07 13:20:17;;;;;;;9.13;5.17;;;7.60;99.90;;;;;;5012310;28;20179;-75
2023/03/07 13:22:43;;;;;;;6.40;4.80;;;7.70;99.90;;;;;;5012489;28;20216;-74
2023/03/07 13:25:32;;;;;;;7.20;5.37;;;7.90;99.90;;;;;;5012251;28;20788;-75
2023/03/07 13:27:59;;;;;;;9.30;6.20;;;7.80;99.90;;;;;;5014567;28;20746;-74
2023/03/07 13:30:30;;;;;;;6.97;4.77;;;7.80;99.90;;;;;;5011284;28;20466;-74
2023/03/07 13:33:23;;;;;;;6.00;5.03;;;7.60;99.90;;;;;;5012209;28;20496;-74
2023/03/07 13:35:57;;;;;;;7.03;4.80;;;7.50;99.90;;;;;;5012256;28;20921;-74
2023/03/07 13:38:22;;;;;;;6.73;4.77;;;7.30;99.90;;;;;;5012073;28;20930;-75
2023/03/07 13:40:54;;;;;;;7.97;3.80;;;7.30;99.90;;;;;;5011948;28;20448;-74
2023/03/07 13:43:22;;;;;;;6.03;3.60;;;7.30;99.90;;;;;;5012094;28;20242;-74
2023/03/07 13:45:58;;;;;;;8.20;4.37;;;7.30;99.90;;;;;;5011862;28;20938;-74
2023/03/07 13:48:26;;;;;;;5.77;4.77;;;7.30;99.90;;;;;;5011819;28;20468;-73
2023/03/07 13:50:52;;;;;;;6.87;4.33;;;7.20;99.90;;;;;;5011616;28;20455;-75
2023/03/07 13:53:34;;;;;;;6.33;4.03;;;7.20;99.90;;;;;;5011827;28;20442;-73
2023/03/07 13:56:14;;;;;;;7.67;4.37;;;7.10;99.90;;;;;;5011864;28;20187;-73
2023/03/07 13:58:59;;;;;;;7.20;4.80;;;7.20;99.90;;;;;;5011787;28;20839;-75
2023/03/07 14:01:44;;;;;;;8.53;4.70;;;7.00;99.90;;;;;;4998980;28;20443;-74
2023/03/07 14:04:25;;;;;;;5.87;3.90;;;7.10;99.90;;;;;;5011526;28;20423;-74
2023/03/07 14:07:03;;;;;;;6.20;4.53;;;7.20;99.90;;;;;;5011464;28;20411;-74
2023/03/07 14:09:38;;;;;;;12.87;4.57;;;7.20;99.90;;;;;;5011424;28;20529;-75
2023/03/07 14:12:29;;;;;;;5.87;4.00;;;7.20;99.90;;;;;;5011417;28;20921;-74
2023/03/07 14:15:06;;;;;;;6.20;4.67;;;7.20;99.90;;;;;;5010141;28;20456;-73
2023/03/07 14:17:45;;;;;;;9.20;4.40;;;7.30;99.90;;;;;;5011363;28;20428;-74
2023/03/07 14:20:21;;;;;;;8.27;5.00;;;7.20;99.90;;;;;;5011058;28;20410;-74
2023/03/07 14:23:15;;;;;;;5.90;3.73;;;7.30;99.90;;;;;;5011520;28;20420;-73
2023/03/07 14:25:45;;;;;;;6.87;4.70;;;7.30;99.90;;;;;;5002773;28;20416;-74
2023/03/07 14:28:19;;;;;;;6.87;4.73;;;7.40;99.90;;;;;;5010805;28;20455;-73
2023/03/07 14:31:00;;;;;;;7.50;4.33;;;7.40;99.90;;;;;;5011239;28;20458;-74
2023/03/07 14:33:37;;;;;;;6.53;4.50;;;7.60;99.90;;;;;;4998389;28;20444;-74
2023/03/07 14:36:17;;;;;;;7.90;4.40;;;7.60;99.90;;;;;;5011133;28;20438;-74